createdAt,value
2017-09-08T00:00:27.902Z,1006.05
2017-09-08T00:01:37.839Z,1006.03
2017-09-08T00:02:48.087Z,1005.98
2017-09-08T00:03:58.326Z,1005.96
2017-09-08T00:05:08.522Z,1005.93
2017-09-08T00:06:18.462Z,1005.95
2017-09-08T00:07:28.720Z,1005.94
2017-09-08T00:08:38.811Z,1005.92
2017-09-08T00:09:48.747Z,1005.96
2017-09-08T00:10:58.927Z,1005.96
2017-09-08T00:12:09.191Z,1005.94
2017-09-08T00:13:19.122Z,1005.92
2017-09-08T00:14:29.380Z,1005.96
2017-09-08T00:15:39.323Z,1005.95
2017-09-08T00:16:49.508Z,1005.94
2017-09-08T00:17:59.757Z,1005.94
2017-09-08T00:19:10.016Z,1005.9
2017-09-08T00:20:20.276Z,1005.88
2017-09-08T00:21:30.524Z,1005.91
2017-09-08T00:22:41.080Z,1005.93
2017-09-08T00:23:51.347Z,1005.9
2017-09-08T00:25:01.611Z,1005.88
2017-09-08T00:26:11.863Z,1005.85
2017-09-08T00:27:22.212Z,1005.92
2017-09-08T00:28:32.405Z,1005.88
2017-09-08T00:29:42.352Z,1005.89
2017-09-08T00:30:52.595Z,1005.85
2017-09-08T00:32:02.844Z,1005.8
2017-09-08T00:33:13.095Z,1005.81
2017-09-08T00:34:23.604Z,1005.87
2017-09-08T00:35:33.855Z,1005.84
2017-09-08T00:36:44.102Z,1005.84
2017-09-08T00:37:54.350Z,1005.76
2017-09-08T00:39:04.596Z,1005.76
2017-09-08T00:40:15.107Z,1005.77
2017-09-08T00:41:24.411Z,1005.8
2017-09-08T00:42:34.654Z,1005.8
2017-09-08T00:43:44.600Z,1005.78
2017-09-08T00:44:54.545Z,1005.83
2017-09-08T00:46:05.044Z,1005.81
2017-09-08T00:47:15.294Z,1005.84
2017-09-08T00:48:25.541Z,1005.8
2017-09-08T00:49:34.845Z,1005.8
2017-09-08T00:50:45.105Z,1005.72
2017-09-08T00:51:55.289Z,1005.72
2017-09-08T00:53:05.547Z,1005.7
2017-09-08T00:54:15.521Z,1005.72
2017-09-08T00:55:25.780Z,1005.73
2017-09-08T00:56:36.029Z,1005.75
2017-09-08T00:57:46.540Z,1005.75
2017-09-08T00:58:56.173Z,1005.71
2017-09-08T01:00:06.418Z,1005.7
2017-09-08T01:01:16.696Z,1005.64
2017-09-08T01:02:26.948Z,1005.64
2017-09-08T01:03:37.453Z,1005.65
2017-09-08T01:04:47.694Z,1005.65
2017-09-08T01:05:57.629Z,1005.66
2017-09-08T01:07:07.902Z,1005.62
2017-09-08T01:08:17.852Z,1005.6
2017-09-08T01:09:28.355Z,1005.54
2017-09-08T01:10:38.286Z,1005.53
2017-09-08T01:11:48.551Z,1005.54
2017-09-08T01:12:58.808Z,1005.48
2017-09-08T01:14:09.059Z,1005.47
2017-09-08T01:15:19.555Z,1005.43
2017-09-08T01:16:29.180Z,1005.42
2017-09-08T01:17:39.423Z,1005.39
2017-09-08T01:18:49.687Z,1005.4
2017-09-08T01:19:59.931Z,1005.36
2017-09-08T01:21:10.442Z,1005.4
2017-09-08T01:22:20.690Z,1005.37
2017-09-08T01:23:30.955Z,1005.33
2017-09-08T01:24:41.210Z,1005.37
2017-09-08T01:25:51.448Z,1005.31
2017-09-08T01:27:01.945Z,1005.34
2017-09-08T01:28:12.192Z,1005.28
2017-09-08T01:29:22.129Z,1005.26
2017-09-08T01:30:32.371Z,1005.19
2017-09-08T01:31:42.334Z,1005.14
2017-09-08T01:32:52.832Z,1005.18
2017-09-08T01:34:03.116Z,1005.17
2017-09-08T01:35:13.361Z,1005.11
2017-09-08T01:36:23.610Z,1005.12
2017-09-08T01:37:33.250Z,1005.09
2017-09-08T01:38:43.756Z,1005.09
2017-09-08T01:39:54.001Z,1005.08
2017-09-08T01:41:03.934Z,1005.11
2017-09-08T01:42:14.193Z,1005.09
2017-09-08T01:43:24.451Z,1005.1
2017-09-08T01:44:34.951Z,1005.06
2017-09-08T01:45:44.879Z,1005.07
2017-09-08T01:46:55.124Z,1005.05
2017-09-08T01:48:05.082Z,1005.03
2017-09-08T01:49:15.340Z,1005.01
2017-09-08T01:50:25.842Z,1005.02
2017-09-08T01:51:36.095Z,1004.97
2017-09-08T01:52:46.349Z,1004.97
2017-09-08T01:53:56.593Z,1004.93
2017-09-08T01:55:06.839Z,1004.96
2017-09-08T01:56:17.335Z,1004.95
2017-09-08T01:57:27.270Z,1004.92
2017-09-08T01:58:37.516Z,1004.96
2017-09-08T01:59:47.452Z,1004.99
2017-09-08T02:00:57.709Z,1004.96
2017-09-08T02:02:08.228Z,1004.99
2017-09-08T02:03:18.484Z,1004.96
2017-09-08T02:04:28.409Z,1005.01
2017-09-08T02:05:38.346Z,1005.01
2017-09-08T02:06:48.604Z,1005.04
2017-09-08T02:07:59.111Z,1004.99
2017-09-08T02:09:09.353Z,1005
2017-09-08T02:10:19.922Z,1004.95
2017-09-08T02:11:29.543Z,1004.98
2017-09-08T02:12:39.804Z,1005.03
2017-09-08T02:13:50.308Z,1005.02
2017-09-08T02:15:00.567Z,1005.02
2017-09-08T02:16:10.813Z,1004.95
2017-09-08T02:17:21.068Z,1004.97
2017-09-08T02:18:31.316Z,1004.93
2017-09-08T02:19:41.508Z,1004.92
2017-09-08T02:20:51.762Z,1004.87
2017-09-08T02:22:02.031Z,1004.83
2017-09-08T02:23:12.272Z,1004.79
2017-09-08T02:24:22.520Z,1004.8
2017-09-08T02:25:33.025Z,1004.78
2017-09-08T02:26:43.275Z,1004.75
2017-09-08T02:27:53.519Z,1004.72
2017-09-08T02:29:03.451Z,1004.72
2017-09-08T02:30:13.700Z,1004.67
2017-09-08T02:31:23.877Z,1004.7
2017-09-08T02:32:34.137Z,1004.66
2017-09-08T02:33:44.109Z,1004.69
2017-09-08T02:34:54.367Z,1004.65
2017-09-08T02:36:04.613Z,1004.66
2017-09-08T02:37:15.117Z,1004.65
2017-09-08T02:38:25.056Z,1004.66
2017-09-08T02:39:34.990Z,1004.71
2017-09-08T02:40:45.236Z,1004.68
2017-09-08T02:41:55.164Z,1004.76
2017-09-08T02:43:05.666Z,1004.73
2017-09-08T02:44:15.921Z,1004.75
2017-09-08T02:45:26.190Z,1004.72
2017-09-08T02:46:36.438Z,1004.69
2017-09-08T02:47:46.379Z,1004.65
2017-09-08T02:48:56.880Z,1004.67
2017-09-08T02:50:07.127Z,1004.69
2017-09-08T02:51:17.380Z,1004.68
2017-09-08T02:52:27.628Z,1004.62
2017-09-08T02:53:37.559Z,1004.68
2017-09-08T02:54:48.077Z,1004.62
2017-09-08T02:55:58.322Z,1004.64
2017-09-08T02:57:08.261Z,1004.57
2017-09-08T02:58:18.508Z,1004.59
2017-09-08T02:59:28.760Z,1004.59
2017-09-08T03:00:38.954Z,1004.59
2017-09-08T03:01:48.891Z,1004.6
2017-09-08T03:02:59.147Z,1004.62
2017-09-08T03:04:09.075Z,1004.57
2017-09-08T03:05:19.352Z,1004.58
2017-09-08T03:06:29.545Z,1004.64
2017-09-08T03:07:39.797Z,1004.65
2017-09-08T03:08:49.746Z,1004.65
2017-09-08T03:09:59.991Z,1004.65
2017-09-08T03:11:09.299Z,1004.63
2017-09-08T03:12:19.796Z,1004.59
2017-09-08T03:13:29.752Z,1004.54
2017-09-08T03:14:40.002Z,1004.55
2017-09-08T03:15:50.251Z,1004.52
2017-09-08T03:17:00.504Z,1004.58
2017-09-08T03:18:10.996Z,1004.54
2017-09-08T03:19:21.244Z,1004.48
2017-09-08T03:20:31.497Z,1004.49
2017-09-08T03:21:41.763Z,1004.48
2017-09-08T03:22:52.010Z,1004.43
2017-09-08T03:24:02.512Z,1004.41
2017-09-08T03:25:12.773Z,1004.34
2017-09-08T03:26:23.013Z,1004.41
2017-09-08T03:27:32.624Z,1004.4
2017-09-08T03:28:42.564Z,1004.39
2017-09-08T03:29:52.742Z,1004.34
2017-09-08T03:31:02.997Z,1004.33
2017-09-08T03:32:12.942Z,1004.35
2017-09-08T03:33:22.558Z,1004.31
2017-09-08T03:34:32.814Z,1004.31
2017-09-08T03:35:43.323Z,1004.32
2017-09-08T03:36:53.580Z,1004.3
2017-09-08T03:38:03.827Z,1004.28
2017-09-08T03:39:14.074Z,1004.29
2017-09-08T03:40:24.021Z,1004.22
2017-09-08T03:41:34.215Z,1004.3
2017-09-08T03:42:44.472Z,1004.3
2017-09-08T03:43:54.400Z,1004.24
2017-09-08T03:45:04.645Z,1004.28
2017-09-08T03:46:14.888Z,1004.25
2017-09-08T03:47:25.394Z,1004.22
2017-09-08T03:48:35.336Z,1004.21
2017-09-08T03:49:45.593Z,1004.29
2017-09-08T03:50:55.521Z,1004.21
2017-09-08T03:52:05.788Z,1004.19
2017-09-08T03:53:16.285Z,1004.2
2017-09-08T03:54:26.212Z,1004.14
2017-09-08T03:55:35.879Z,1004.1
2017-09-08T03:56:46.128Z,1004.12
2017-09-08T03:57:56.056Z,1004.12
2017-09-08T03:59:06.247Z,1004.14
2017-09-08T04:00:16.494Z,1004.15
2017-09-08T04:01:26.741Z,1004.08
2017-09-08T04:02:36.360Z,1004
2017-09-08T04:03:46.304Z,1004.04
2017-09-08T04:04:56.861Z,1004.02
2017-09-08T04:06:07.099Z,1003.99
2017-09-08T04:07:17.040Z,1004.01
2017-09-08T04:08:26.963Z,1004.03
2017-09-08T04:09:36.925Z,1004
2017-09-08T04:10:47.427Z,1004.07
2017-09-08T04:11:57.360Z,1004.02
2017-09-08T04:13:07.305Z,1004.05
2017-09-08T04:14:17.560Z,1004.03
2017-09-08T04:15:27.808Z,1004.02
2017-09-08T04:16:37.991Z,1003.97
2017-09-08T04:17:47.931Z,1004.01
2017-09-08T04:18:58.183Z,1003.98
2017-09-08T04:20:08.109Z,1003.98
2017-09-08T04:21:18.087Z,1003.92
2017-09-08T04:22:28.585Z,1003.92
2017-09-08T04:23:38.841Z,1003.91
2017-09-08T04:24:49.098Z,1003.97
2017-09-08T04:25:59.037Z,1003.9
2017-09-08T04:27:08.668Z,1003.88
2017-09-08T04:28:18.538Z,1003.83
2017-09-08T04:29:28.796Z,1003.85
2017-09-08T04:30:39.050Z,1003.83
2017-09-08T04:31:49.304Z,1003.85
2017-09-08T04:32:59.554Z,1003.85
2017-09-08T04:34:10.058Z,1003.83
2017-09-08T04:35:19.998Z,1003.83
2017-09-08T04:36:30.246Z,1003.79
2017-09-08T04:37:40.509Z,1003.81
2017-09-08T04:38:50.821Z,1003.85
2017-09-08T04:40:00.698Z,1003.83
2017-09-08T04:41:10.642Z,1003.85
2017-09-08T04:42:20.911Z,1003.79
2017-09-08T04:43:31.410Z,1003.79
2017-09-08T04:44:41.672Z,1003.83
2017-09-08T04:45:52.167Z,1003.73
2017-09-08T04:47:02.424Z,1003.71
2017-09-08T04:48:12.057Z,1003.66
2017-09-08T04:49:21.989Z,1003.68
2017-09-08T04:50:32.241Z,1003.62
2017-09-08T04:51:42.427Z,1003.65
2017-09-08T04:52:52.677Z,1003.65
2017-09-08T04:54:02.637Z,1003.61
2017-09-08T04:55:12.903Z,1003.65
2017-09-08T04:56:22.202Z,1003.67
2017-09-08T04:57:32.722Z,1003.67
2017-09-08T04:58:42.664Z,1003.73
2017-09-08T04:59:52.594Z,1003.7
2017-09-08T05:01:02.842Z,1003.7
2017-09-08T05:02:13.107Z,1003.71
2017-09-08T05:03:23.605Z,1003.72
2017-09-08T05:04:33.543Z,1003.62
2017-09-08T05:05:43.485Z,1003.63
2017-09-08T05:06:53.421Z,1003.64
2017-09-08T05:08:03.039Z,1003.64
2017-09-08T05:09:12.912Z,1003.63
2017-09-08T05:10:22.840Z,1003.65
2017-09-08T05:11:32.773Z,1003.62
2017-09-08T05:12:43.026Z,1003.61
2017-09-08T05:13:53.281Z,1003.64
2017-09-08T05:15:03.473Z,1003.63
2017-09-08T05:16:13.728Z,1003.6
2017-09-08T05:17:23.973Z,1003.64
2017-09-08T05:18:34.237Z,1003.62
2017-09-08T05:19:43.228Z,1003.54
2017-09-08T05:20:53.736Z,1003.64
2017-09-08T05:22:03.985Z,1003.6
2017-09-08T05:23:14.228Z,1003.57
2017-09-08T05:24:24.485Z,1003.6
2017-09-08T05:25:34.729Z,1003.58
2017-09-08T05:26:45.252Z,1003.57
2017-09-08T05:27:55.517Z,1003.56
2017-09-08T05:29:05.767Z,1003.53
2017-09-08T05:30:15.700Z,1003.52
2017-09-08T05:31:25.951Z,1003.51
2017-09-08T05:32:36.137Z,1003.5
2017-09-08T05:33:46.074Z,1003.52
2017-09-08T05:34:56.008Z,1003.47
2017-09-08T05:36:06.262Z,1003.43
2017-09-08T05:37:16.525Z,1003.44
2017-09-08T05:38:27.025Z,1003.47
2017-09-08T05:39:37.268Z,1003.44
2017-09-08T05:40:47.227Z,1003.49
2017-09-08T05:41:56.842Z,1003.44
2017-09-08T05:43:06.763Z,1003.49
2017-09-08T05:44:16.957Z,1003.5
2017-09-08T05:45:26.894Z,1003.54
2017-09-08T05:46:37.144Z,1003.59
2017-09-08T05:47:47.081Z,1003.57
2017-09-08T05:48:57.325Z,1003.6
2017-09-08T05:50:07.539Z,1003.56
2017-09-08T05:51:17.495Z,1003.54
2017-09-08T05:52:27.434Z,1003.54
2017-09-08T05:53:37.430Z,1003.55
2017-09-08T05:54:47.711Z,1003.53
2017-09-08T05:55:58.209Z,1003.54
2017-09-08T05:57:08.151Z,1003.55
2017-09-08T05:58:18.399Z,1003.61
2017-09-08T05:59:28.697Z,1003.52
2017-09-08T06:00:38.949Z,1003.54
2017-09-08T06:01:49.452Z,1003.48
2017-09-08T06:02:59.724Z,1003.45
2017-09-08T06:04:09.679Z,1003.4
2017-09-08T06:05:19.951Z,1003.41
2017-09-08T06:06:30.219Z,1003.41
2017-09-08T06:07:40.101Z,1003.39
2017-09-08T06:08:50.366Z,1003.37
2017-09-08T06:10:00.310Z,1003.32
2017-09-08T06:11:10.259Z,1003.29
2017-09-08T06:12:20.546Z,1003.21
2017-09-08T06:13:31.046Z,1003.21
2017-09-08T06:14:40.670Z,1003.22
2017-09-08T06:15:50.931Z,1003.21
2017-09-08T06:17:01.234Z,1003.19
2017-09-08T06:18:11.170Z,1003.15
2017-09-08T06:19:21.359Z,1003.09
2017-09-08T06:20:31.626Z,1003.04
2017-09-08T06:21:41.579Z,1003.04
2017-09-08T06:22:51.835Z,1003.02
2017-09-08T06:24:01.770Z,1003.02
2017-09-08T06:25:11.972Z,1003.08
2017-09-08T06:26:22.247Z,1003.09
2017-09-08T06:27:32.512Z,1003.04
2017-09-08T06:28:42.775Z,1003.03
2017-09-08T06:29:53.042Z,1003.02
2017-09-08T06:31:03.555Z,1003.02
2017-09-08T06:32:13.517Z,1003.02
2017-09-08T06:33:23.774Z,1003
2017-09-08T06:34:34.030Z,1002.95
2017-09-08T06:35:44.272Z,1002.95
2017-09-08T06:36:54.159Z,1002.96
2017-09-08T06:38:04.412Z,1002.98
2017-09-08T06:39:14.673Z,1003.02
2017-09-08T06:40:24.315Z,1003.03
2017-09-08T06:41:34.576Z,1003.03
2017-09-08T06:42:44.788Z,1002.98
2017-09-08T06:43:55.057Z,1002.96
2017-09-08T06:45:04.675Z,1002.98
2017-09-08T06:46:14.939Z,1002.98
2017-09-08T06:47:24.563Z,1002.92
2017-09-08T06:48:35.113Z,1002.88
2017-09-08T06:49:45.389Z,1002.91
2017-09-08T06:50:55.658Z,1002.9
2017-09-08T06:52:05.939Z,1002.92
2017-09-08T06:53:16.189Z,1002.86
2017-09-08T06:54:26.058Z,1002.9
2017-09-08T06:55:36.020Z,1002.93
2017-09-08T06:56:46.254Z,1002.93
2017-09-08T06:57:56.505Z,1002.9
2017-09-08T06:59:06.757Z,1002.87
2017-09-08T07:00:17.264Z,1002.86
2017-09-08T07:01:27.541Z,1002.86
2017-09-08T07:02:37.802Z,1002.83
2017-09-08T07:03:48.081Z,1002.81
2017-09-08T07:04:58.337Z,1002.82
2017-09-08T07:06:08.856Z,1002.79
2017-09-08T07:07:18.813Z,1002.8
2017-09-08T07:08:29.076Z,1002.83
2017-09-08T07:09:39.026Z,1002.77
2017-09-08T07:10:49.302Z,1002.85
2017-09-08T07:11:59.510Z,1002.78
2017-09-08T07:13:09.780Z,1002.79
2017-09-08T07:14:20.042Z,1002.76
2017-09-08T07:15:30.346Z,1002.74
2017-09-08T07:16:40.622Z,1002.74
2017-09-08T07:17:50.814Z,1002.72
2017-09-08T07:19:01.077Z,1002.78
2017-09-08T07:20:11.353Z,1002.75
2017-09-08T07:21:21.649Z,1002.76
2017-09-08T07:22:31.909Z,1002.76
2017-09-08T07:23:42.110Z,1002.73
2017-09-08T07:24:52.374Z,1002.72
2017-09-08T07:26:02.662Z,1002.68
2017-09-08T07:27:12.938Z,1002.72
2017-09-08T07:28:23.191Z,1002.72
2017-09-08T07:29:33.376Z,1002.7
2017-09-08T07:30:43.317Z,1002.68
2017-09-08T07:31:52.938Z,1002.68
2017-09-08T07:33:03.192Z,1002.71
2017-09-08T07:34:13.130Z,1002.74
2017-09-08T07:35:23.642Z,1002.71
2017-09-08T07:36:33.890Z,1002.68
2017-09-08T07:37:44.199Z,1002.64
2017-09-08T07:38:54.444Z,1002.63
2017-09-08T07:40:04.703Z,1002.63
2017-09-08T07:41:14.593Z,1002.61
2017-09-08T07:42:24.876Z,1002.63
2017-09-08T07:43:35.154Z,1002.64
2017-09-08T07:44:45.426Z,1002.65
2017-09-08T07:45:55.682Z,1002.65
2017-09-08T07:47:05.912Z,1002.55
2017-09-08T07:48:16.212Z,1002.58
2017-09-08T07:49:26.466Z,1002.65
2017-09-08T07:50:36.729Z,1002.47
2017-09-08T07:51:46.684Z,1002.6
2017-09-08T07:52:57.195Z,1002.59
2017-09-08T07:54:07.140Z,1002.55
2017-09-08T07:55:17.091Z,1002.43
2017-09-08T07:56:27.032Z,1002.48
2017-09-08T07:57:36.978Z,1002.5
2017-09-08T07:58:47.220Z,1002.4
2017-09-08T07:59:57.475Z,1002.51
2017-09-08T08:01:07.431Z,1002.48
2017-09-08T08:02:17.700Z,1002.55
2017-09-08T08:03:27.960Z,1002.54
2017-09-08T08:04:38.491Z,1002.57
2017-09-08T08:05:48.759Z,1002.5
2017-09-08T08:06:58.475Z,1002.51
2017-09-08T08:08:08.742Z,1002.5
2017-09-08T08:09:19.014Z,1002.46
2017-09-08T08:10:29.523Z,1002.44
2017-09-08T08:11:39.813Z,1002.45
2017-09-08T08:12:49.777Z,1002.45
2017-09-08T08:13:59.765Z,1002.48
2017-09-08T08:15:09.727Z,1002.43
2017-09-08T08:16:20.251Z,1002.42
2017-09-08T08:17:30.537Z,1002.4
2017-09-08T08:18:40.834Z,1002.37
2017-09-08T08:19:50.793Z,1002.28
2017-09-08T08:21:00.756Z,1002.36
2017-09-08T08:22:11.295Z,1002.44
2017-09-08T08:23:21.553Z,1002.38
2017-09-08T08:24:31.190Z,1002.29
2017-09-08T08:25:41.141Z,1002.34
2017-09-08T08:26:51.438Z,1002.31
2017-09-08T08:28:01.626Z,1002.26
2017-09-08T08:29:11.906Z,1002.33
2017-09-08T08:30:22.205Z,1002.28
2017-09-08T08:31:32.459Z,1002.25
2017-09-08T08:32:42.750Z,1002.44
2017-09-08T08:33:53.311Z,1002.28
2017-09-08T08:35:03.572Z,1002.3
2017-09-08T08:36:13.841Z,1002.22
2017-09-08T08:37:23.783Z,1002.23
2017-09-08T08:38:34.036Z,1002.28
2017-09-08T08:39:44.577Z,1002.21
2017-09-08T08:40:54.386Z,1002.19
2017-09-08T08:42:04.679Z,1002.18
2017-09-08T08:43:14.633Z,1002.19
2017-09-08T08:44:24.900Z,1002.14
2017-09-08T08:45:35.448Z,1002.11
2017-09-08T08:46:45.721Z,1002.15
2017-09-08T08:47:55.992Z,1002.08
2017-09-08T08:49:06.270Z,1002.05
2017-09-08T08:50:16.560Z,1002.14
2017-09-08T08:51:27.081Z,1002.11
2017-09-08T08:52:37.368Z,1002.07
2017-09-08T08:53:47.641Z,1002.07
2017-09-08T08:54:58.155Z,1002.04
2017-09-08T08:56:08.111Z,1002.05
2017-09-08T08:57:18.661Z,1001.98
2017-09-08T08:58:28.930Z,1001.94
2017-09-08T08:59:39.199Z,1001.97
2017-09-08T09:00:49.469Z,1001.95
2017-09-08T09:01:59.735Z,1001.98
2017-09-08T09:03:09.938Z,1002
2017-09-08T09:04:20.214Z,1001.89
2017-09-08T09:05:30.477Z,1001.88
2017-09-08T09:06:40.729Z,1001.9
2017-09-08T09:07:50.990Z,1001.85
2017-09-08T09:09:01.554Z,1001.91
2017-09-08T09:10:11.821Z,1001.79
2017-09-08T09:11:21.474Z,1001.83
2017-09-08T09:12:31.432Z,1001.86
2017-09-08T09:13:41.706Z,1001.8
2017-09-08T09:14:52.212Z,1001.86
2017-09-08T09:16:02.465Z,1001.8
2017-09-08T09:17:12.421Z,1001.86
2017-09-08T09:18:22.093Z,1001.75
2017-09-08T09:19:32.048Z,1001.71
2017-09-08T09:20:42.556Z,1001.74
2017-09-08T09:21:52.818Z,1001.69
2017-09-08T09:23:02.452Z,1001.65
2017-09-08T09:24:12.381Z,1001.64
2017-09-08T09:25:22.657Z,1001.67
2017-09-08T09:26:32.908Z,1001.7
2017-09-08T09:27:43.161Z,1001.72
2017-09-08T09:28:53.420Z,1001.58
2017-09-08T09:30:03.380Z,1001.67
2017-09-08T09:31:13.331Z,1001.56
2017-09-08T09:32:23.847Z,1001.59
2017-09-08T09:33:34.112Z,1001.6
2017-09-08T09:34:43.738Z,1001.58
2017-09-08T09:35:54.009Z,1001.55
2017-09-08T09:37:04.309Z,1001.63
2017-09-08T09:38:14.807Z,1001.59
2017-09-08T09:39:25.090Z,1001.56
2017-09-08T09:40:35.338Z,1001.59
2017-09-08T09:41:45.327Z,1001.56
2017-09-08T09:42:55.577Z,1001.53
2017-09-08T09:44:05.780Z,1001.54
2017-09-08T09:45:16.078Z,1001.48
2017-09-08T09:46:26.331Z,1001.49
2017-09-08T09:47:36.635Z,1001.5
2017-09-08T09:48:46.583Z,1001.52
2017-09-08T09:49:57.079Z,1001.46
2017-09-08T09:51:07.016Z,1001.48
2017-09-08T09:52:17.274Z,1001.46
2017-09-08T09:53:27.556Z,1001.51
2017-09-08T09:54:37.862Z,1001.52
2017-09-08T09:55:48.400Z,1001.49
2017-09-08T09:56:58.668Z,1001.48
2017-09-08T09:58:08.924Z,1001.47
2017-09-08T09:59:19.192Z,1001.41
2017-09-08T10:00:29.145Z,1001.44
2017-09-08T10:01:39.733Z,1001.43
2017-09-08T10:02:49.345Z,1001.37
2017-09-08T10:03:58.983Z,1001.37
2017-09-08T10:05:09.251Z,1001.37
2017-09-08T10:06:19.513Z,1001.38
2017-09-08T10:07:30.057Z,1001.29
2017-09-08T10:08:40.327Z,1001.34
2017-09-08T10:09:50.271Z,1001.38
2017-09-08T10:11:00.595Z,1001.32
2017-09-08T10:12:10.570Z,1001.28
2017-09-08T10:13:21.087Z,1001.29
2017-09-08T10:14:31.363Z,1001.29
2017-09-08T10:15:41.652Z,1001.19
2017-09-08T10:16:51.899Z,1001.25
2017-09-08T10:18:02.158Z,1001.25
2017-09-08T10:19:12.405Z,1001.2
2017-09-08T10:20:22.693Z,1001.26
2017-09-08T10:21:32.955Z,1001.21
2017-09-08T10:22:42.911Z,1001.24
2017-09-08T10:23:53.187Z,1001.2
2017-09-08T10:25:03.403Z,1001.22
2017-09-08T10:26:13.379Z,1001.19
2017-09-08T10:27:23.666Z,1001.23
2017-09-08T10:28:33.964Z,1001.2
2017-09-08T10:29:43.909Z,1001.23
2017-09-08T10:30:53.801Z,1001.18
2017-09-08T10:32:04.074Z,1001.21
2017-09-08T10:33:14.329Z,1001.12
2017-09-08T10:34:24.604Z,1001.2
2017-09-08T10:35:34.231Z,1001.2
2017-09-08T10:36:44.764Z,1001.14
2017-09-08T10:37:55.024Z,1001.2
2017-09-08T10:39:04.976Z,1001.19
2017-09-08T10:40:15.225Z,1001.24
2017-09-08T10:41:25.164Z,1001.22
2017-09-08T10:42:35.669Z,1001.24
2017-09-08T10:43:45.943Z,1001.26
2017-09-08T10:44:56.210Z,1001.19
2017-09-08T10:46:06.484Z,1001.18
2017-09-08T10:47:16.777Z,1001.15
2017-09-08T10:48:26.989Z,1001.19
2017-09-08T10:49:37.288Z,1001.14
2017-09-08T10:50:47.593Z,1001.2
2017-09-08T10:51:57.535Z,1001.15
2017-09-08T10:53:07.627Z,1001.09
2017-09-08T10:54:17.552Z,1001.15
2017-09-08T10:55:27.495Z,1001.15
2017-09-08T10:56:37.752Z,1001.2
2017-09-08T10:57:48.035Z,1001.13
2017-09-08T10:58:57.994Z,1001.05
2017-09-08T11:00:08.387Z,1001.11
2017-09-08T11:01:18.014Z,1001.11
2017-09-08T11:02:27.963Z,1001.14
2017-09-08T11:03:38.256Z,1001.14
2017-09-08T11:04:48.524Z,1001.12
2017-09-08T11:05:59.076Z,1001.09
2017-09-08T11:07:09.047Z,1001.09
2017-09-08T11:08:19.343Z,1001.12
2017-09-08T11:09:29.611Z,1001.09
2017-09-08T11:10:39.650Z,1001.09
2017-09-08T11:11:49.857Z,1001.08
2017-09-08T11:13:00.109Z,1001.1
2017-09-08T11:14:10.381Z,1001.08
2017-09-08T11:15:20.321Z,1001.12
2017-09-08T11:16:30.595Z,1001.06
2017-09-08T11:17:41.110Z,1001.04
2017-09-08T11:18:51.404Z,1001.07
2017-09-08T11:20:01.666Z,1001.12
2017-09-08T11:21:11.942Z,1001.09
2017-09-08T11:22:22.244Z,1001.13
2017-09-08T11:23:32.755Z,1001.12
2017-09-08T11:24:43.044Z,1001.05
2017-09-08T11:25:53.318Z,1001.11
2017-09-08T11:27:03.578Z,1001.05
2017-09-08T11:28:13.846Z,1001.1
2017-09-08T11:29:24.410Z,1001.18
2017-09-08T11:30:34.691Z,1001.01
2017-09-08T11:31:45.001Z,1001.1
2017-09-08T11:32:55.282Z,1001.09
2017-09-08T11:34:05.555Z,1001.11
2017-09-08T11:35:16.068Z,1001.01
2017-09-08T11:36:26.371Z,1001.09
2017-09-08T11:37:36.641Z,1001.16
2017-09-08T11:38:46.596Z,1001.06
2017-09-08T11:39:56.572Z,1001.05
2017-09-08T11:41:07.084Z,1001.06
2017-09-08T11:42:17.360Z,1001.08
2017-09-08T11:43:27.311Z,1001.08
2017-09-08T11:44:37.573Z,1001.09
2017-09-08T11:45:47.842Z,1001.1
2017-09-08T11:46:58.343Z,1001.08
2017-09-08T11:48:08.606Z,1001.09
2017-09-08T11:49:18.872Z,1000.95
2017-09-08T11:50:29.151Z,1001
2017-09-08T11:51:39.091Z,1001.1
2017-09-08T11:52:49.292Z,1001.04
2017-09-08T11:53:59.598Z,1001.1
2017-09-08T11:55:09.862Z,1001.13
2017-09-08T11:56:20.147Z,1001.14
2017-09-08T11:57:30.097Z,1001.03
2017-09-08T11:58:40.301Z,1001.26
2017-09-08T11:59:50.572Z,1001.1
2017-09-08T12:01:00.859Z,1001.13
2017-09-08T12:02:11.115Z,1001.04
2017-09-08T12:03:21.120Z,1001.1
2017-09-08T12:04:31.645Z,1001.02
2017-09-08T12:05:41.952Z,1001.04
2017-09-08T12:06:51.917Z,1001.05
2017-09-08T12:08:02.199Z,1001.01
2017-09-08T12:09:12.146Z,1000.91
2017-09-08T12:10:22.696Z,1001.13
2017-09-08T12:11:32.984Z,1000.96
2017-09-08T12:12:43.292Z,1000.95
2017-09-08T12:13:53.565Z,1000.89
2017-09-08T12:15:03.867Z,1001.07
2017-09-08T12:16:13.828Z,1000.96
2017-09-08T12:17:23.781Z,1000.85
2017-09-08T12:18:33.961Z,1000.88
2017-09-08T12:19:44.239Z,1000.92
2017-09-08T12:20:54.192Z,1000.8
2017-09-08T12:22:04.708Z,1000.89
2017-09-08T12:23:14.987Z,1000.9
2017-09-08T12:24:24.712Z,1000.86
2017-09-08T12:25:35.004Z,1000.9
2017-09-08T12:26:45.272Z,1000.8
2017-09-08T12:27:55.785Z,1000.75
2017-09-08T12:29:05.742Z,1000.75
2017-09-08T12:30:15.697Z,1000.74
2017-09-08T12:31:25.954Z,1000.63
2017-09-08T12:32:36.223Z,1000.74
2017-09-08T12:33:46.434Z,1000.72
2017-09-08T12:34:56.698Z,1000.69
2017-09-08T12:36:06.957Z,1000.71
2017-09-08T12:37:16.925Z,1000.72
2017-09-08T12:38:26.881Z,1000.69
2017-09-08T12:39:37.389Z,1000.67
2017-09-08T12:40:47.661Z,1000.71
2017-09-08T12:41:57.933Z,1000.73
2017-09-08T12:43:08.204Z,1000.61
2017-09-08T12:44:18.146Z,1000.61
2017-09-08T12:45:28.357Z,1000.65
2017-09-08T12:46:38.320Z,1000.66
2017-09-08T12:47:48.590Z,1000.65
2017-09-08T12:48:58.887Z,1000.65
2017-09-08T12:50:09.158Z,1000.62
2017-09-08T12:51:19.666Z,1000.58
2017-09-08T12:52:29.968Z,1000.56
2017-09-08T12:53:40.242Z,1000.56
2017-09-08T12:54:50.510Z,1000.6
2017-09-08T12:56:00.476Z,1000.57
2017-09-08T12:57:11.014Z,1000.56
2017-09-08T12:58:20.333Z,1000.54
2017-09-08T12:59:30.277Z,1000.53
2017-09-08T13:00:39.938Z,1000.56
2017-09-08T13:01:50.194Z,1000.52
2017-09-08T13:03:00.713Z,1000.51
2017-09-08T13:04:10.649Z,1000.54
2017-09-08T13:05:20.925Z,1000.56
2017-09-08T13:06:31.175Z,1000.51
2017-09-08T13:07:41.450Z,1000.58
2017-09-08T13:08:51.016Z,1000.57
2017-09-08T13:10:01.277Z,1000.6
2017-09-08T13:11:11.538Z,1000.61
2017-09-08T13:12:21.482Z,1000.53
2017-09-08T13:13:31.751Z,1000.52
2017-09-08T13:14:42.314Z,1000.58
2017-09-08T13:15:52.585Z,1000.52
2017-09-08T13:17:02.847Z,1000.54
2017-09-08T13:18:12.481Z,1000.53
2017-09-08T13:19:22.119Z,1000.47
2017-09-08T13:20:32.618Z,1000.45
2017-09-08T13:21:42.545Z,1000.48
2017-09-08T13:22:52.155Z,1000.49
2017-09-08T13:24:02.411Z,1000.47
2017-09-08T13:25:12.080Z,1000.47
2017-09-08T13:26:22.293Z,1000.41
2017-09-08T13:27:32.247Z,1000.39
2017-09-08T13:28:42.499Z,1000.35
2017-09-08T13:29:52.448Z,1000.31
2017-09-08T13:31:02.402Z,1000.28
2017-09-08T13:32:12.917Z,1000.29
2017-09-08T13:33:23.181Z,1000.26
2017-09-08T13:34:33.112Z,1000.27
2017-09-08T13:35:43.364Z,1000.2
2017-09-08T13:36:53.346Z,1000.14
2017-09-08T13:38:02.589Z,1000.15
2017-09-08T13:39:12.885Z,1000.19
2017-09-08T13:40:22.821Z,1000.21
2017-09-08T13:41:33.074Z,1000.14
2017-09-08T13:42:43.326Z,1000.1
2017-09-08T13:43:53.862Z,1000.17
2017-09-08T13:45:04.119Z,1000.11
2017-09-08T13:46:14.372Z,1000.1
2017-09-08T13:47:24.320Z,1000.1
2017-09-08T13:48:34.570Z,1000.12
2017-09-08T13:49:44.769Z,1000.06
2017-09-08T13:50:54.791Z,1000.12
2017-09-08T13:52:04.733Z,1000.11
2017-09-08T13:53:14.974Z,1000.09
2017-09-08T13:54:24.592Z,1000.1
2017-09-08T13:55:35.092Z,1000.09
2017-09-08T13:56:45.051Z,1000.13
2017-09-08T13:57:55.306Z,1000.1
2017-09-08T13:59:05.254Z,1000.12
2017-09-08T14:00:15.547Z,1000.13
2017-09-08T14:01:26.050Z,1000.06
2017-09-08T14:02:35.988Z,1000.16
2017-09-08T14:03:46.242Z,1000.15
2017-09-08T14:04:56.193Z,1000.09
2017-09-08T14:06:06.138Z,1000.13
2017-09-08T14:07:16.663Z,1000.13
2017-09-08T14:08:26.619Z,1000.11
2017-09-08T14:09:36.883Z,1000.1
2017-09-08T14:10:47.137Z,1000.02
2017-09-08T14:11:57.403Z,999.99